sensor_id;sensor_type;location;lat;lon;timestamp;P1;durP1;ratioP1;P2;durP2;ratioP2
18210;SDS011;9231;48.852;9.882;2023-07-22T00:00:23;4.20;;;2.10;;
18210;SDS011;9231;48.852;9.882;2023-07-22T00:02:49;2.37;;;1.67;;
18210;SDS011;9231;48.852;9.882;2023-07-22T00:05:16;3.57;;;1.60;;
18210;SDS011;9231;48.852;9.882;2023-07-22T00:07:47;2.20;;;1.80;;
18210;SDS011;9231;48.852;9.882;2023-07-22T00:10:13;2.60;;;1.67;;
18210;SDS011;9231;48.852;9.882;2023-07-22T00:12:40;3.57;;;2.10;;
18210;SDS011;9231;48.852;9.882;2023-07-22T00:15:07;3.37;;;2.00;;
18210;SDS011;9231;48.852;9.882;2023-07-22T00:17:38;2.30;;;2.10;;
18210;SDS011;9231;48.852;9.882;2023-07-22T00:20:05;3.23;;;1.77;;
18210;SDS011;9231;48.852;9.882;2023-07-22T00:22:36;2.03;;;1.67;;
18210;SDS011;9231;48.852;9.882;2023-07-22T00:25:02;3.60;;;2.00;;
18210;SDS011;9231;48.852;9.882;2023-07-22T00:27:29;2.13;;;1.90;;
18210;SDS011;9231;48.852;9.882;2023-07-22T00:29:56;3.10;;;2.20;;
18210;SDS011;9231;48.852;9.882;2023-07-22T00:32:22;3.13;;;2.37;;
18210;SDS011;9231;48.852;9.882;2023-07-22T00:34:50;2.27;;;1.93;;
18210;SDS011;9231;48.852;9.882;2023-07-22T00:37:17;2.07;;;1.50;;
18210;SDS011;9231;48.852;9.882;2023-07-22T00:39:43;1.30;;;1.20;;
18210;SDS011;9231;48.852;9.882;2023-07-22T00:42:10;2.53;;;1.73;;
18210;SDS011;9231;48.852;9.882;2023-07-22T00:44:36;1.97;;;1.60;;
18210;SDS011;9231;48.852;9.882;2023-07-22T00:47:03;2.90;;;1.50;;
18210;SDS011;9231;48.852;9.882;2023-07-22T00:49:29;4.43;;;1.70;;
18210;SDS011;9231;48.852;9.882;2023-07-22T00:51:59;3.23;;;1.50;;
18210;SDS011;9231;48.852;9.882;2023-07-22T00:54:27;3.30;;;1.50;;
18210;SDS011;9231;48.852;9.882;2023-07-22T00:56:53;3.27;;;2.03;;
18210;SDS011;9231;48.852;9.882;2023-07-22T00:59:20;2.47;;;1.70;;
18210;SDS011;9231;48.852;9.882;2023-07-22T01:01:47;3.87;;;1.90;;
18210;SDS011;9231;48.852;9.882;2023-07-22T01:04:13;2.10;;;1.90;;
18210;SDS011;9231;48.852;9.882;2023-07-22T01:06:41;2.50;;;1.90;;
18210;SDS011;9231;48.852;9.882;2023-07-22T01:09:10;3.50;;;2.10;;
18210;SDS011;9231;48.852;9.882;2023-07-22T01:11:36;2.30;;;2.07;;
18210;SDS011;9231;48.852;9.882;2023-07-22T01:14:03;2.00;;;1.47;;
18210;SDS011;9231;48.852;9.882;2023-07-22T01:16:29;2.37;;;1.90;;
18210;SDS011;9231;48.852;9.882;2023-07-22T01:18:56;2.67;;;1.77;;
18210;SDS011;9231;48.852;9.882;2023-07-22T01:21:23;2.10;;;1.50;;
18210;SDS011;9231;48.852;9.882;2023-07-22T01:23:52;4.73;;;1.77;;
18210;SDS011;9231;48.852;9.882;2023-07-22T01:26:19;2.20;;;1.43;;
18210;SDS011;9231;48.852;9.882;2023-07-22T01:28:45;2.03;;;1.70;;
18210;SDS011;9231;48.852;9.882;2023-07-22T01:31:12;2.90;;;1.50;;
18210;SDS011;9231;48.852;9.882;2023-07-22T01:33:38;2.07;;;1.67;;
18210;SDS011;9231;48.852;9.882;2023-07-22T01:36:05;2.23;;;1.50;;
18210;SDS011;9231;48.852;9.882;2023-07-22T01:38:32;2.27;;;1.37;;
18210;SDS011;9231;48.852;9.882;2023-07-22T01:41:00;2.77;;;1.70;;
18210;SDS011;9231;48.852;9.882;2023-07-22T01:43:26;1.63;;;1.47;;
18210;SDS011;9231;48.852;9.882;2023-07-22T01:45:53;2.23;;;2.00;;
18210;SDS011;9231;48.852;9.882;2023-07-22T01:48:19;4.63;;;2.40;;
18210;SDS011;9231;48.852;9.882;2023-07-22T01:50:47;3.80;;;2.27;;
18210;SDS011;9231;48.852;9.882;2023-07-22T01:53:13;3.30;;;2.30;;
18210;SDS011;9231;48.852;9.882;2023-07-22T01:55:40;4.43;;;2.43;;
18210;SDS011;9231;48.852;9.882;2023-07-22T01:58:08;2.73;;;2.30;;
18210;SDS011;9231;48.852;9.882;2023-07-22T02:03:35;2.53;;;2.07;;
18210;SDS011;9231;48.852;9.882;2023-07-22T02:06:05;4.57;;;2.27;;
18210;SDS011;9231;48.852;9.882;2023-07-22T02:08:37;3.40;;;2.47;;
18210;SDS011;9231;48.852;9.882;2023-07-22T02:11:04;3.83;;;2.80;;
18210;SDS011;9231;48.852;9.882;2023-07-22T02:13:33;3.73;;;2.30;;
18210;SDS011;9231;48.852;9.882;2023-07-22T02:16:00;3.60;;;2.50;;
18210;SDS011;9231;48.852;9.882;2023-07-22T02:18:27;3.33;;;2.27;;
18210;SDS011;9231;48.852;9.882;2023-07-22T02:20:56;4.97;;;2.50;;
18210;SDS011;9231;48.852;9.882;2023-07-22T02:23:27;3.13;;;2.27;;
18210;SDS011;9231;48.852;9.882;2023-07-22T02:25:53;5.50;;;2.13;;
18210;SDS011;9231;48.852;9.882;2023-07-22T02:28:20;2.80;;;2.30;;
18210;SDS011;9231;48.852;9.882;2023-07-22T02:30:51;2.87;;;1.87;;
18210;SDS011;9231;48.852;9.882;2023-07-22T02:33:18;2.83;;;2.30;;
18210;SDS011;9231;48.852;9.882;2023-07-22T02:35:44;6.37;;;2.27;;
18210;SDS011;9231;48.852;9.882;2023-07-22T02:38:11;3.50;;;2.17;;
18210;SDS011;9231;48.852;9.882;2023-07-22T02:40:39;4.23;;;2.00;;
18210;SDS011;9231;48.852;9.882;2023-07-22T02:43:05;5.37;;;2.43;;
18210;SDS011;9231;48.852;9.882;2023-07-22T02:45:32;3.33;;;2.60;;
18210;SDS011;9231;48.852;9.882;2023-07-22T02:48:07;2.77;;;2.20;;
18210;SDS011;9231;48.852;9.882;2023-07-22T02:50:38;3.47;;;2.13;;
18210;SDS011;9231;48.852;9.882;2023-07-22T02:53:06;1.80;;;1.70;;
18210;SDS011;9231;48.852;9.882;2023-07-22T02:55:32;1.90;;;1.60;;
18210;SDS011;9231;48.852;9.882;2023-07-22T02:58:18;2.10;;;1.73;;
18210;SDS011;9231;48.852;9.882;2023-07-22T03:01:09;3.97;;;1.97;;
18210;SDS011;9231;48.852;9.882;2023-07-22T03:03:43;3.27;;;1.77;;
18210;SDS011;9231;48.852;9.882;2023-07-22T03:06:10;4.07;;;1.60;;
18210;SDS011;9231;48.852;9.882;2023-07-22T03:08:36;2.23;;;1.60;;
18210;SDS011;9231;48.852;9.882;2023-07-22T03:11:04;4.67;;;1.80;;
18210;SDS011;9231;48.852;9.882;2023-07-22T03:13:31;3.10;;;1.50;;
18210;SDS011;9231;48.852;9.882;2023-07-22T03:16:00;3.53;;;1.60;;
18210;SDS011;9231;48.852;9.882;2023-07-22T03:18:29;2.10;;;1.80;;
18210;SDS011;9231;48.852;9.882;2023-07-22T03:20:59;2.33;;;1.70;;
18210;SDS011;9231;48.852;9.882;2023-07-22T03:23:25;2.30;;;1.80;;
18210;SDS011;9231;48.852;9.882;2023-07-22T03:25:54;3.73;;;2.10;;
18210;SDS011;9231;48.852;9.882;2023-07-22T03:28:22;2.37;;;1.57;;
18210;SDS011;9231;48.852;9.882;2023-07-22T03:30:48;4.13;;;2.20;;
18210;SDS011;9231;48.852;9.882;2023-07-22T03:33:15;3.00;;;1.93;;
18210;SDS011;9231;48.852;9.882;2023-07-22T03:35:41;2.40;;;2.00;;
18210;SDS011;9231;48.852;9.882;2023-07-22T03:38:09;3.33;;;1.83;;
18210;SDS011;9231;48.852;9.882;2023-07-22T03:40:35;4.40;;;2.33;;
18210;SDS011;9231;48.852;9.882;2023-07-22T03:43:03;4.57;;;2.17;;
18210;SDS011;9231;48.852;9.882;2023-07-22T03:45:29;6.17;;;2.10;;
18210;SDS011;9231;48.852;9.882;2023-07-22T03:47:56;2.57;;;1.90;;
18210;SDS011;9231;48.852;9.882;2023-07-22T03:50:23;3.80;;;2.20;;
18210;SDS011;9231;48.852;9.882;2023-07-22T03:52:49;2.37;;;2.07;;
18210;SDS011;9231;48.852;9.882;2023-07-22T03:55:17;2.40;;;2.00;;
18210;SDS011;9231;48.852;9.882;2023-07-22T03:57:44;2.53;;;1.70;;
18210;SDS011;9231;48.852;9.882;2023-07-22T04:00:11;2.07;;;1.60;;
18210;SDS011;9231;48.852;9.882;2023-07-22T04:02:37;2.63;;;1.90;;
18210;SDS011;9231;48.852;9.882;2023-07-22T04:05:04;2.97;;;1.97;;
18210;SDS011;9231;48.852;9.882;2023-07-22T04:07:31;3.60;;;2.00;;
18210;SDS011;9231;48.852;9.882;2023-07-22T04:09:57;1.70;;;1.53;;
18210;SDS011;9231;48.852;9.882;2023-07-22T04:12:25;1.83;;;1.40;;
18210;SDS011;9231;48.852;9.882;2023-07-22T04:14:51;3.27;;;1.53;;
18210;SDS011;9231;48.852;9.882;2023-07-22T04:17:18;2.17;;;1.67;;
18210;SDS011;9231;48.852;9.882;2023-07-22T04:19:44;2.70;;;1.23;;
18210;SDS011;9231;48.852;9.882;2023-07-22T04:22:11;2.10;;;1.23;;
18210;SDS011;9231;48.852;9.882;2023-07-22T04:24:38;1.73;;;1.43;;
18210;SDS011;9231;48.852;9.882;2023-07-22T04:27:05;2.50;;;1.40;;
18210;SDS011;9231;48.852;9.882;2023-07-22T04:29:33;2.40;;;1.70;;
18210;SDS011;9231;48.852;9.882;2023-07-22T04:32:00;1.43;;;1.33;;
18210;SDS011;9231;48.852;9.882;2023-07-22T04:34:28;3.37;;;1.50;;
18210;SDS011;9231;48.852;9.882;2023-07-22T04:36:54;2.57;;;1.70;;
18210;SDS011;9231;48.852;9.882;2023-07-22T04:39:21;2.20;;;1.77;;
18210;SDS011;9231;48.852;9.882;2023-07-22T04:41:48;3.87;;;1.70;;
18210;SDS011;9231;48.852;9.882;2023-07-22T04:44:14;1.67;;;1.30;;
18210;SDS011;9231;48.852;9.882;2023-07-22T04:46:42;2.77;;;1.60;;
18210;SDS011;9231;48.852;9.882;2023-07-22T04:49:09;2.77;;;1.50;;
18210;SDS011;9231;48.852;9.882;2023-07-22T04:51:35;1.80;;;1.60;;
18210;SDS011;9231;48.852;9.882;2023-07-22T04:54:02;2.00;;;1.47;;
18210;SDS011;9231;48.852;9.882;2023-07-22T04:56:28;5.10;;;2.97;;
18210;SDS011;9231;48.852;9.882;2023-07-22T04:58:55;6.97;;;3.80;;
18210;SDS011;9231;48.852;9.882;2023-07-22T05:01:21;6.37;;;3.03;;
18210;SDS011;9231;48.852;9.882;2023-07-22T05:03:49;3.87;;;2.73;;
18210;SDS011;9231;48.852;9.882;2023-07-22T05:06:15;3.43;;;2.90;;
18210;SDS011;9231;48.852;9.882;2023-07-22T05:08:42;3.70;;;2.70;;
18210;SDS011;9231;48.852;9.882;2023-07-22T05:11:08;7.23;;;3.00;;
18210;SDS011;9231;48.852;9.882;2023-07-22T05:13:35;3.33;;;2.73;;
18210;SDS011;9231;48.852;9.882;2023-07-22T05:16:02;3.07;;;2.43;;
18210;SDS011;9231;48.852;9.882;2023-07-22T05:18:29;3.63;;;2.50;;
18210;SDS011;9231;48.852;9.882;2023-07-22T05:20:57;2.80;;;2.50;;
18210;SDS011;9231;48.852;9.882;2023-07-22T05:23:23;3.23;;;2.50;;
18210;SDS011;9231;48.852;9.882;2023-07-22T05:25:50;3.40;;;2.50;;
18210;SDS011;9231;48.852;9.882;2023-07-22T05:28:17;4.80;;;2.80;;
18210;SDS011;9231;48.852;9.882;2023-07-22T05:30:43;4.17;;;2.70;;
18210;SDS011;9231;48.852;9.882;2023-07-22T05:33:10;3.80;;;2.40;;
18210;SDS011;9231;48.852;9.882;2023-07-22T05:35:36;4.63;;;2.80;;
18210;SDS011;9231;48.852;9.882;2023-07-22T05:38:04;5.77;;;2.87;;
18210;SDS011;9231;48.852;9.882;2023-07-22T05:40:31;4.07;;;2.23;;
18210;SDS011;9231;48.852;9.882;2023-07-22T05:42:57;4.23;;;2.50;;
18210;SDS011;9231;48.852;9.882;2023-07-22T05:45:24;2.47;;;2.13;;
18210;SDS011;9231;48.852;9.882;2023-07-22T05:47:50;4.73;;;3.20;;
18210;SDS011;9231;48.852;9.882;2023-07-22T05:50:16;5.27;;;3.27;;
18210;SDS011;9231;48.852;9.882;2023-07-22T05:52:43;5.70;;;2.87;;
18210;SDS011;9231;48.852;9.882;2023-07-22T05:55:11;2.80;;;2.60;;
18210;SDS011;9231;48.852;9.882;2023-07-22T05:57:38;4.73;;;2.37;;
18210;SDS011;9231;48.852;9.882;2023-07-22T06:00:04;4.40;;;3.28;;
18210;SDS011;9231;48.852;9.882;2023-07-22T06:02:33;4.43;;;3.10;;
18210;SDS011;9231;48.852;9.882;2023-07-22T06:05:00;3.03;;;2.43;;
18210;SDS011;9231;48.852;9.882;2023-07-22T06:07:26;3.43;;;2.33;;
18210;SDS011;9231;48.852;9.882;2023-07-22T06:09:53;4.23;;;2.60;;
18210;SDS011;9231;48.852;9.882;2023-07-22T06:12:21;2.40;;;1.90;;
18210;SDS011;9231;48.852;9.882;2023-07-22T06:14:47;3.53;;;2.23;;
18210;SDS011;9231;48.852;9.882;2023-07-22T06:17:13;2.97;;;2.10;;
18210;SDS011;9231;48.852;9.882;2023-07-22T06:19:40;4.13;;;2.30;;
18210;SDS011;9231;48.852;9.882;2023-07-22T06:22:06;2.97;;;2.03;;
18210;SDS011;9231;48.852;9.882;2023-07-22T06:24:33;3.60;;;1.63;;
18210;SDS011;9231;48.852;9.882;2023-07-22T06:26:59;3.03;;;2.23;;
18210;SDS011;9231;48.852;9.882;2023-07-22T06:29:27;3.27;;;2.20;;
18210;SDS011;9231;48.852;9.882;2023-07-22T06:31:54;3.33;;;2.20;;
18210;SDS011;9231;48.852;9.882;2023-07-22T06:34:20;4.70;;;1.73;;
18210;SDS011;9231;48.852;9.882;2023-07-22T06:36:47;1.77;;;1.67;;
18210;SDS011;9231;48.852;9.882;2023-07-22T06:39:13;2.27;;;1.67;;
18210;SDS011;9231;48.852;9.882;2023-07-22T06:41:40;2.87;;;2.00;;
18210;SDS011;9231;48.852;9.882;2023-07-22T06:44:06;2.63;;;1.77;;
18210;SDS011;9231;48.852;9.882;2023-07-22T06:46:34;3.23;;;1.77;;
18210;SDS011;9231;48.852;9.882;2023-07-22T06:49:00;2.43;;;1.63;;
18210;SDS011;9231;48.852;9.882;2023-07-22T06:51:28;3.33;;;1.97;;
18210;SDS011;9231;48.852;9.882;2023-07-22T06:53:54;2.40;;;2.03;;
18210;SDS011;9231;48.852;9.882;2023-07-22T06:56:20;4.17;;;1.70;;
18210;SDS011;9231;48.852;9.882;2023-07-22T06:58:47;2.10;;;1.90;;
18210;SDS011;9231;48.852;9.882;2023-07-22T07:01:13;3.23;;;1.87;;
18210;SDS011;9231;48.852;9.882;2023-07-22T07:03:41;2.60;;;1.43;;
18210;SDS011;9231;48.852;9.882;2023-07-22T07:06:08;2.20;;;1.60;;
18210;SDS011;9231;48.852;9.882;2023-07-22T07:08:34;1.83;;;1.47;;
18210;SDS011;9231;48.852;9.882;2023-07-22T07:11:02;2.07;;;1.60;;
18210;SDS011;9231;48.852;9.882;2023-07-22T07:13:28;2.37;;;1.67;;
18210;SDS011;9231;48.852;9.882;2023-07-22T07:15:55;5.67;;;1.97;;
18210;SDS011;9231;48.852;9.882;2023-07-22T07:18:21;2.07;;;1.40;;
18210;SDS011;9231;48.852;9.882;2023-07-22T07:20:49;4.23;;;1.80;;
18210;SDS011;9231;48.852;9.882;2023-07-22T07:23:16;3.03;;;1.70;;
18210;SDS011;9231;48.852;9.882;2023-07-22T07:25:42;1.70;;;1.37;;
18210;SDS011;9231;48.852;9.882;2023-07-22T07:28:09;4.30;;;1.70;;
18210;SDS011;9231;48.852;9.882;2023-07-22T07:30:36;4.40;;;1.50;;
18210;SDS011;9231;48.852;9.882;2023-07-22T07:33:03;2.80;;;1.50;;
18210;SDS011;9231;48.852;9.882;2023-07-22T07:35:29;2.70;;;2.03;;
18210;SDS011;9231;48.852;9.882;2023-07-22T07:37:57;2.90;;;1.50;;
18210;SDS011;9231;48.852;9.882;2023-07-22T07:40:24;3.53;;;1.80;;
18210;SDS011;9231;48.852;9.882;2023-07-22T07:42:51;4.87;;;1.50;;
18210;SDS011;9231;48.852;9.882;2023-07-22T07:45:18;3.17;;;1.40;;
18210;SDS011;9231;48.852;9.882;2023-07-22T07:47:45;2.47;;;1.77;;
18210;SDS011;9231;48.852;9.882;2023-07-22T07:50:11;2.60;;;1.77;;
18210;SDS011;9231;48.852;9.882;2023-07-22T07:52:38;1.77;;;1.33;;
18210;SDS011;9231;48.852;9.882;2023-07-22T07:55:06;2.60;;;1.37;;
18210;SDS011;9231;48.852;9.882;2023-07-22T07:57:33;2.27;;;1.70;;
18210;SDS011;9231;48.852;9.882;2023-07-22T07:59:59;2.60;;;1.73;;
18210;SDS011;9231;48.852;9.882;2023-07-22T08:02:26;2.27;;;1.50;;
18210;SDS011;9231;48.852;9.882;2023-07-22T08:04:52;1.63;;;1.50;;
18210;SDS011;9231;48.852;9.882;2023-07-22T08:07:19;2.00;;;1.50;;
18210;SDS011;9231;48.852;9.882;2023-07-22T08:09:46;4.43;;;1.70;;
18210;SDS011;9231;48.852;9.882;2023-07-22T08:12:15;3.90;;;1.93;;
18210;SDS011;9231;48.852;9.882;2023-07-22T08:14:41;1.93;;;1.50;;
18210;SDS011;9231;48.852;9.882;2023-07-22T08:17:08;1.80;;;1.30;;
18210;SDS011;9231;48.852;9.882;2023-07-22T08:19:34;3.10;;;1.60;;
18210;SDS011;9231;48.852;9.882;2023-07-22T08:22:01;1.83;;;1.40;;
18210;SDS011;9231;48.852;9.882;2023-07-22T08:24:27;2.20;;;1.20;;
18210;SDS011;9231;48.852;9.882;2023-07-22T08:26:53;1.87;;;1.60;;
18210;SDS011;9231;48.852;9.882;2023-07-22T08:29:21;4.40;;;1.50;;
18210;SDS011;9231;48.852;9.882;2023-07-22T08:31:48;1.77;;;1.47;;
18210;SDS011;9231;48.852;9.882;2023-07-22T08:34:14;1.60;;;1.30;;
18210;SDS011;9231;48.852;9.882;2023-07-22T08:36:41;2.40;;;1.30;;
18210;SDS011;9231;48.852;9.882;2023-07-22T08:39:07;3.40;;;1.50;;
18210;SDS011;9231;48.852;9.882;2023-07-22T08:41:33;3.13;;;1.33;;
18210;SDS011;9231;48.852;9.882;2023-07-22T08:44:01;2.80;;;1.40;;
18210;SDS011;9231;48.852;9.882;2023-07-22T08:46:29;1.23;;;1.10;;
18210;SDS011;9231;48.852;9.882;2023-07-22T08:48:57;1.23;;;1.00;;
18210;SDS011;9231;48.852;9.882;2023-07-22T08:51:25;1.50;;;1.13;;
18210;SDS011;9231;48.852;9.882;2023-07-22T08:53:53;2.67;;;1.40;;
18210;SDS011;9231;48.852;9.882;2023-07-22T08:56:21;2.33;;;1.30;;
18210;SDS011;9231;48.852;9.882;2023-07-22T08:58:49;2.38;;;1.30;;
18210;SDS011;9231;48.852;9.882;2023-07-22T09:01:16;3.70;;;1.60;;
18210;SDS011;9231;48.852;9.882;2023-07-22T09:03:44;1.27;;;1.13;;
18210;SDS011;9231;48.852;9.882;2023-07-22T09:06:10;1.83;;;1.20;;
18210;SDS011;9231;48.852;9.882;2023-07-22T09:08:37;3.08;;;1.10;;
18210;SDS011;9231;48.852;9.882;2023-07-22T09:11:04;1.58;;;1.10;;
18210;SDS011;9231;48.852;9.882;2023-07-22T09:13:32;2.85;;;1.13;;
18210;SDS011;9231;48.852;9.882;2023-07-22T09:15:59;1.52;;;0.93;;
18210;SDS011;9231;48.852;9.882;2023-07-22T09:18:25;2.95;;;1.20;;
18210;SDS011;9231;48.852;9.882;2023-07-22T09:20:53;1.95;;;1.10;;
18210;SDS011;9231;48.852;9.882;2023-07-22T09:23:31;1.25;;;0.90;;
18210;SDS011;9231;48.852;9.882;2023-07-22T09:26:07;1.58;;;1.05;;
18210;SDS011;9231;48.852;9.882;2023-07-22T09:28:46;1.10;;;0.80;;
18210;SDS011;9231;48.852;9.882;2023-07-22T09:31:13;1.13;;;0.90;;
18210;SDS011;9231;48.852;9.882;2023-07-22T09:33:39;3.50;;;0.98;;
18210;SDS011;9231;48.852;9.882;2023-07-22T09:36:09;2.08;;;1.00;;
18210;SDS011;9231;48.852;9.882;2023-07-22T09:38:35;1.42;;;1.02;;
18210;SDS011;9231;48.852;9.882;2023-07-22T09:41:02;1.67;;;1.20;;
18210;SDS011;9231;48.852;9.882;2023-07-22T09:43:29;1.80;;;1.30;;
18210;SDS011;9231;48.852;9.882;2023-07-22T09:45:56;1.55;;;1.02;;
18210;SDS011;9231;48.852;9.882;2023-07-22T09:48:32;2.83;;;0.90;;
18210;SDS011;9231;48.852;9.882;2023-07-22T09:51:05;2.03;;;1.10;;
18210;SDS011;9231;48.852;9.882;2023-07-22T09:53:32;1.98;;;1.33;;
18210;SDS011;9231;48.852;9.882;2023-07-22T09:56:02;2.22;;;1.48;;
18210;SDS011;9231;48.852;9.882;2023-07-22T09:58:29;1.45;;;1.10;;
18210;SDS011;9231;48.852;9.882;2023-07-22T10:00:57;1.45;;;1.02;;
18210;SDS011;9231;48.852;9.882;2023-07-22T10:03:23;3.20;;;1.48;;
18210;SDS011;9231;48.852;9.882;2023-07-22T10:05:55;3.47;;;1.40;;
18210;SDS011;9231;48.852;9.882;2023-07-22T10:08:21;1.30;;;1.10;;
18210;SDS011;9231;48.852;9.882;2023-07-22T10:10:51;4.85;;;1.30;;
18210;SDS011;9231;48.852;9.882;2023-07-22T10:13:19;2.35;;;1.10;;
18210;SDS011;9231;48.852;9.882;2023-07-22T10:15:46;3.72;;;1.00;;
18210;SDS011;9231;48.852;9.882;2023-07-22T10:18:13;3.38;;;1.10;;
18210;SDS011;9231;48.852;9.882;2023-07-22T10:20:41;2.50;;;1.20;;
18210;SDS011;9231;48.852;9.882;2023-07-22T10:23:09;1.75;;;1.10;;
18210;SDS011;9231;48.852;9.882;2023-07-22T10:25:37;2.72;;;1.20;;
18210;SDS011;9231;48.852;9.882;2023-07-22T10:28:06;1.98;;;1.17;;
18210;SDS011;9231;48.852;9.882;2023-07-22T10:30:33;2.13;;;1.05;;
18210;SDS011;9231;48.852;9.882;2023-07-22T10:32:59;1.58;;;1.00;;
18210;SDS011;9231;48.852;9.882;2023-07-22T10:35:34;3.15;;;1.50;;
18210;SDS011;9231;48.852;9.882;2023-07-22T10:38:06;2.00;;;1.23;;
18210;SDS011;9231;48.852;9.882;2023-07-22T10:40:33;1.20;;;1.10;;
18210;SDS011;9231;48.852;9.882;2023-07-22T10:43:11;1.48;;;1.02;;
18210;SDS011;9231;48.852;9.882;2023-07-22T10:45:39;1.90;;;1.30;;
18210;SDS011;9231;48.852;9.882;2023-07-22T10:48:06;3.20;;;1.45;;
18210;SDS011;9231;48.852;9.882;2023-07-22T10:50:40;1.38;;;1.08;;
18210;SDS011;9231;48.852;9.882;2023-07-22T10:53:08;1.80;;;1.20;;
18210;SDS011;9231;48.852;9.882;2023-07-22T10:55:38;2.08;;;1.35;;
18210;SDS011;9231;48.852;9.882;2023-07-22T10:58:26;5.13;;;1.40;;
18210;SDS011;9231;48.852;9.882;2023-07-22T11:00:52;1.63;;;1.17;;
18210;SDS011;9231;48.852;9.882;2023-07-22T11:03:19;3.25;;;1.33;;
18210;SDS011;9231;48.852;9.882;2023-07-22T11:05:50;2.95;;;1.33;;
18210;SDS011;9231;48.852;9.882;2023-07-22T11:08:29;2.78;;;1.33;;
18210;SDS011;9231;48.852;9.882;2023-07-22T11:11:00;2.00;;;1.10;;
18210;SDS011;9231;48.852;9.882;2023-07-22T11:13:29;3.15;;;1.20;;
18210;SDS011;9231;48.852;9.882;2023-07-22T11:15:57;2.25;;;1.48;;
18210;SDS011;9231;48.852;9.882;2023-07-22T11:18:34;1.67;;;1.17;;
18210;SDS011;9231;48.852;9.882;2023-07-22T11:21:01;1.38;;;1.02;;
18210;SDS011;9231;48.852;9.882;2023-07-22T11:23:28;2.45;;;1.13;;
18210;SDS011;9231;48.852;9.882;2023-07-22T11:25:54;2.45;;;1.33;;
18210;SDS011;9231;48.852;9.882;2023-07-22T11:31:04;2.35;;;1.38;;
18210;SDS011;9231;48.852;9.882;2023-07-22T11:33:37;2.83;;;1.50;;
18210;SDS011;9231;48.852;9.882;2023-07-22T11:36:04;1.50;;;1.17;;
18210;SDS011;9231;48.852;9.882;2023-07-22T11:38:30;1.35;;;1.20;;
18210;SDS011;9231;48.852;9.882;2023-07-22T11:40:57;2.95;;;1.23;;
18210;SDS011;9231;48.852;9.882;2023-07-22T11:43:24;1.98;;;1.40;;
18210;SDS011;9231;48.852;9.882;2023-07-22T11:45:51;1.90;;;1.27;;
18210;SDS011;9231;48.852;9.882;2023-07-22T11:48:19;2.17;;;1.30;;
18210;SDS011;9231;48.852;9.882;2023-07-22T11:50:45;1.98;;;1.30;;
18210;SDS011;9231;48.852;9.882;2023-07-22T11:53:11;1.80;;;1.10;;
18210;SDS011;9231;48.852;9.882;2023-07-22T11:55:38;2.08;;;1.05;;
18210;SDS011;9231;48.852;9.882;2023-07-22T11:58:04;2.00;;;1.10;;
18210;SDS011;9231;48.852;9.882;2023-07-22T12:00:32;2.95;;;1.13;;
18210;SDS011;9231;48.852;9.882;2023-07-22T12:03:04;1.70;;;1.40;;
18210;SDS011;9231;48.852;9.882;2023-07-22T12:05:34;2.08;;;1.20;;
18210;SDS011;9231;48.852;9.882;2023-07-22T12:08:02;1.65;;;1.10;;
18210;SDS011;9231;48.852;9.882;2023-07-22T12:10:29;1.90;;;1.13;;
18210;SDS011;9231;48.852;9.882;2023-07-22T12:12:55;3.45;;;1.27;;
18210;SDS011;9231;48.852;9.882;2023-07-22T12:15:26;3.92;;;1.23;;
18210;SDS011;9231;48.852;9.882;2023-07-22T12:17:53;2.25;;;1.30;;
18210;SDS011;9231;48.852;9.882;2023-07-22T12:20:23;3.53;;;1.20;;
18210;SDS011;9231;48.852;9.882;2023-07-22T12:22:51;1.40;;;1.15;;
18210;SDS011;9231;48.852;9.882;2023-07-22T12:25:17;4.22;;;1.15;;
18210;SDS011;9231;48.852;9.882;2023-07-22T12:27:44;4.60;;;1.50;;
18210;SDS011;9231;48.852;9.882;2023-07-22T12:30:10;2.53;;;1.67;;
18210;SDS011;9231;48.852;9.882;2023-07-22T12:32:37;2.22;;;1.58;;
18210;SDS011;9231;48.852;9.882;2023-07-22T12:35:04;1.92;;;1.38;;
18210;SDS011;9231;48.852;9.882;2023-07-22T12:37:31;2.95;;;1.42;;
18210;SDS011;9231;48.852;9.882;2023-07-22T12:39:58;1.98;;;1.30;;
18210;SDS011;9231;48.852;9.882;2023-07-22T12:42:28;2.40;;;1.30;;
18210;SDS011;9231;48.852;9.882;2023-07-22T12:44:54;1.55;;;1.02;;
18210;SDS011;9231;48.852;9.882;2023-07-22T12:47:21;2.13;;;1.38;;
18210;SDS011;9231;48.852;9.882;2023-07-22T12:49:47;1.42;;;1.20;;
18210;SDS011;9231;48.852;9.882;2023-07-22T12:52:13;2.10;;;1.10;;
18210;SDS011;9231;48.852;9.882;2023-07-22T12:54:40;1.80;;;1.35;;
18210;SDS011;9231;48.852;9.882;2023-07-22T12:57:11;1.70;;;1.52;;
18210;SDS011;9231;48.852;9.882;2023-07-22T12:59:38;1.77;;;1.40;;
18210;SDS011;9231;48.852;9.882;2023-07-22T13:02:06;1.75;;;1.33;;
18210;SDS011;9231;48.852;9.882;2023-07-22T13:04:32;3.47;;;1.50;;
18210;SDS011;9231;48.852;9.882;2023-07-22T13:06:59;1.52;;;1.20;;
18210;SDS011;9231;48.852;9.882;2023-07-22T13:09:25;1.23;;;1.10;;
18210;SDS011;9231;48.852;9.882;2023-07-22T13:11:51;3.08;;;1.40;;
18210;SDS011;9231;48.852;9.882;2023-07-22T13:14:19;1.42;;;1.20;;
18210;SDS011;9231;48.852;9.882;2023-07-22T13:16:46;1.42;;;1.13;;
18210;SDS011;9231;48.852;9.882;2023-07-22T13:19:12;1.38;;;1.08;;
18210;SDS011;9231;48.852;9.882;2023-07-22T13:21:39;1.48;;;1.10;;
18210;SDS011;9231;48.852;9.882;2023-07-22T13:24:06;2.47;;;1.77;;
18210;SDS011;9231;48.852;9.882;2023-07-22T13:26:32;3.13;;;1.30;;
18210;SDS011;9231;48.852;9.882;2023-07-22T13:29:00;1.58;;;1.40;;
18210;SDS011;9231;48.852;9.882;2023-07-22T13:31:27;1.88;;;1.30;;
18210;SDS011;9231;48.852;9.882;2023-07-22T13:33:54;1.70;;;1.40;;
18210;SDS011;9231;48.852;9.882;2023-07-22T13:36:21;2.13;;;1.73;;
18210;SDS011;9231;48.852;9.882;2023-07-22T13:38:50;3.72;;;1.40;;
18210;SDS011;9231;48.852;9.882;2023-07-22T13:41:17;2.25;;;1.60;;
18210;SDS011;9231;48.852;9.882;2023-07-22T13:43:44;2.72;;;1.40;;
18210;SDS011;9231;48.852;9.882;2023-07-22T13:46:10;1.90;;;1.23;;
18210;SDS011;9231;48.852;9.882;2023-07-22T13:48:38;1.42;;;1.27;;
18210;SDS011;9231;48.852;9.882;2023-07-22T13:51:04;4.10;;;1.20;;
18210;SDS011;9231;48.852;9.882;2023-07-22T13:53:31;1.70;;;1.42;;
18210;SDS011;9231;48.852;9.882;2023-07-22T13:55:57;1.67;;;1.30;;
18210;SDS011;9231;48.852;9.882;2023-07-22T13:58:24;2.78;;;1.35;;
18210;SDS011;9231;48.852;9.882;2023-07-22T14:00:50;2.15;;;1.48;;
18210;SDS011;9231;48.852;9.882;2023-07-22T14:03:17;1.58;;;1.20;;
18210;SDS011;9231;48.852;9.882;2023-07-22T14:05:45;1.92;;;1.58;;
18210;SDS011;9231;48.852;9.882;2023-07-22T14:08:12;1.70;;;1.13;;
18210;SDS011;9231;48.852;9.882;2023-07-22T14:10:38;2.10;;;1.42;;
18210;SDS011;9231;48.852;9.882;2023-07-22T14:13:05;3.42;;;1.30;;
18210;SDS011;9231;48.852;9.882;2023-07-22T14:15:31;1.98;;;1.20;;
18210;SDS011;9231;48.852;9.882;2023-07-22T14:17:58;2.08;;;1.30;;
18210;SDS011;9231;48.852;9.882;2023-07-22T14:20:24;1.30;;;1.20;;
18210;SDS011;9231;48.852;9.882;2023-07-22T14:22:52;3.13;;;1.40;;
18210;SDS011;9231;48.852;9.882;2023-07-22T14:25:18;2.33;;;1.58;;
18210;SDS011;9231;48.852;9.882;2023-07-22T14:27:45;1.60;;;1.50;;
18210;SDS011;9231;48.852;9.882;2023-07-22T14:30:11;2.90;;;1.48;;
18210;SDS011;9231;48.852;9.882;2023-07-22T14:32:38;1.60;;;1.50;;
18210;SDS011;9231;48.852;9.882;2023-07-22T14:35:04;1.48;;;1.15;;
18210;SDS011;9231;48.852;9.882;2023-07-22T14:37:31;1.63;;;1.38;;
18210;SDS011;9231;48.852;9.882;2023-07-22T14:39:59;2.70;;;1.42;;
18210;SDS011;9231;48.852;9.882;2023-07-22T14:42:26;4.20;;;1.38;;
18210;SDS011;9231;48.852;9.882;2023-07-22T14:44:52;1.65;;;1.20;;
18210;SDS011;9231;48.852;9.882;2023-07-22T14:47:18;2.50;;;1.40;;
18210;SDS011;9231;48.852;9.882;2023-07-22T14:49:45;3.05;;;1.60;;
18210;SDS011;9231;48.852;9.882;2023-07-22T14:52:11;2.13;;;1.48;;
18210;SDS011;9231;48.852;9.882;2023-07-22T14:54:38;2.83;;;1.25;;
18210;SDS011;9231;48.852;9.882;2023-07-22T14:57:06;2.67;;;1.30;;
18210;SDS011;9231;48.852;9.882;2023-07-22T14:59:32;2.65;;;1.60;;
18210;SDS011;9231;48.852;9.882;2023-07-22T15:01:59;2.92;;;1.90;;
18210;SDS011;9231;48.852;9.882;2023-07-22T15:04:25;2.20;;;1.90;;
18210;SDS011;9231;48.852;9.882;2023-07-22T15:06:52;2.53;;;1.63;;